Aviation Digital Data Service (ADDS)

Output produced by METARs form (1744 UTC 12 December 2017)
found at http://aviationweather.gov/adds/metars/
 
KJXN 121741Z 1218/1318 31018G28KT P6SM VCSH OVC025 
     FM130200 30007KT P6SM BKN040 
     FM131500 18007KT 2SM -SN OVC015 
     FM131600 17008KT 1SM -SN OVC007